sensor_id;sensor_type;location;lat;lon;timestamp;pressure;altitude;pressure_sealevel;temperature;humidity
53960;BME280;39866;48.638;-2.020;2023-02-17T00:00:34;102496.16;;;16.95;70.35
53960;BME280;39866;48.638;-2.020;2023-02-17T00:03:00;102506.38;;;17.13;69.80
53960;BME280;39866;48.638;-2.020;2023-02-17T00:05:25;102499.25;;;17.12;69.71
53960;BME280;39866;48.638;-2.020;2023-02-17T00:07:51;102495.81;;;17.07;69.75
53960;BME280;39866;48.638;-2.020;2023-02-17T00:10:17;102503.53;;;16.87;69.92
53960;BME280;39866;48.638;-2.020;2023-02-17T00:12:42;102508.81;;;16.90;70.64
53960;BME280;39866;48.638;-2.020;2023-02-17T00:15:08;102506.91;;;16.95;69.85
53960;BME280;39866;48.638;-2.020;2023-02-17T00:17:33;102511.97;;;17.07;69.84
53960;BME280;39866;48.638;-2.020;2023-02-17T00:19:59;102505.63;;;17.08;69.55
53960;BME280;39866;48.638;-2.020;2023-02-17T00:22:24;102510.06;;;17.11;69.37
53960;BME280;39866;48.638;-2.020;2023-02-17T00:24:50;102507.31;;;17.12;69.53
53960;BME280;39866;48.638;-2.020;2023-02-17T00:27:15;102508.16;;;17.14;69.33
53960;BME280;39866;48.638;-2.020;2023-02-17T00:29:40;102504.63;;;17.12;69.31
53960;BME280;39866;48.638;-2.020;2023-02-17T00:32:06;102522.50;;;17.15;69.35
53960;BME280;39866;48.638;-2.020;2023-02-17T00:34:33;102509.81;;;17.18;69.47
53960;BME280;39866;48.638;-2.020;2023-02-17T00:36:59;102520.44;;;17.24;69.22
53960;BME280;39866;48.638;-2.020;2023-02-17T00:39:24;102514.84;;;17.30;69.17
53960;BME280;39866;48.638;-2.020;2023-02-17T00:41:50;102513.03;;;17.32;69.02
53960;BME280;39866;48.638;-2.020;2023-02-17T00:44:17;102506.56;;;17.07;69.18
53960;BME280;39866;48.638;-2.020;2023-02-17T00:46:44;102522.38;;;17.19;69.15
53960;BME280;39866;48.638;-2.020;2023-02-17T00:49:22;102522.31;;;17.21;69.21
53960;BME280;39866;48.638;-2.020;2023-02-17T00:51:48;102526.88;;;17.19;69.00
53960;BME280;39866;48.638;-2.020;2023-02-17T00:54:14;102518.56;;;17.26;68.85
53960;BME280;39866;48.638;-2.020;2023-02-17T00:56:40;102520.25;;;17.30;68.71
53960;BME280;39866;48.638;-2.020;2023-02-17T00:59:06;102511.63;;;17.19;68.71
53960;BME280;39866;48.638;-2.020;2023-02-17T01:01:32;102505.59;;;17.09;69.02
53960;BME280;39866;48.638;-2.020;2023-02-17T01:03:58;102513.53;;;17.14;68.95
53960;BME280;39866;48.638;-2.020;2023-02-17T01:06:26;102504.63;;;17.12;69.10
53960;BME280;39866;48.638;-2.020;2023-02-17T01:08:52;102513.88;;;17.02;69.49
53960;BME280;39866;48.638;-2.020;2023-02-17T01:11:19;102512.09;;;17.01;69.59
53960;BME280;39866;48.638;-2.020;2023-02-17T01:13:44;102504.22;;;16.95;69.80
53960;BME280;39866;48.638;-2.020;2023-02-17T01:16:37;102508.41;;;17.05;69.65
53960;BME280;39866;48.638;-2.020;2023-02-17T01:19:08;102512.38;;;16.92;70.11
53960;BME280;39866;48.638;-2.020;2023-02-17T01:21:34;102518.81;;;16.86;70.34
53960;BME280;39866;48.638;-2.020;2023-02-17T01:24:02;102505.56;;;16.78;70.55
53960;BME280;39866;48.638;-2.020;2023-02-17T01:26:29;102511.56;;;16.88;70.76
53960;BME280;39866;48.638;-2.020;2023-02-17T01:28:55;102510.69;;;16.88;70.77
53960;BME280;39866;48.638;-2.020;2023-02-17T01:31:21;102510.44;;;16.97;70.49
53960;BME280;39866;48.638;-2.020;2023-02-17T01:33:47;102517.41;;;17.04;70.08
53960;BME280;39866;48.638;-2.020;2023-02-17T01:36:15;102510.34;;;17.00;70.20
53960;BME280;39866;48.638;-2.020;2023-02-17T01:38:40;102507.75;;;16.97;70.18
53960;BME280;39866;48.638;-2.020;2023-02-17T01:41:07;102505.31;;;16.88;70.36
53960;BME280;39866;48.638;-2.020;2023-02-17T01:43:33;102503.69;;;16.80;70.50
53960;BME280;39866;48.638;-2.020;2023-02-17T01:46:00;102497.28;;;16.86;70.53
53960;BME280;39866;48.638;-2.020;2023-02-17T01:51:14;102509.28;;;16.73;71.18
53960;BME280;39866;48.638;-2.020;2023-02-17T01:54:08;102509.53;;;16.62;70.95
53960;BME280;39866;48.638;-2.020;2023-02-17T01:56:38;102505.69;;;16.74;71.00
53960;BME280;39866;48.638;-2.020;2023-02-17T01:59:15;102505.91;;;16.63;71.39
53960;BME280;39866;48.638;-2.020;2023-02-17T02:01:42;102498.28;;;16.46;72.50
53960;BME280;39866;48.638;-2.020;2023-02-17T02:04:07;102498.09;;;16.54;71.61
53960;BME280;39866;48.638;-2.020;2023-02-17T02:06:35;102481.84;;;16.57;71.81
53960;BME280;39866;48.638;-2.020;2023-02-17T02:09:10;102488.63;;;16.73;70.96
53960;BME280;39866;48.638;-2.020;2023-02-17T02:11:37;102494.63;;;16.84;70.96
53960;BME280;39866;48.638;-2.020;2023-02-17T02:14:04;102492.53;;;16.96;70.41
53960;BME280;39866;48.638;-2.020;2023-02-17T02:33:19;102481.22;;;17.14;69.84
53960;BME280;39866;48.638;-2.020;2023-02-17T02:35:57;102483.19;;;17.09;69.79
53960;BME280;39866;48.638;-2.020;2023-02-17T02:38:47;102479.53;;;17.12;69.64
53960;BME280;39866;48.638;-2.020;2023-02-17T02:41:33;102490.44;;;17.07;70.17
53960;BME280;39866;48.638;-2.020;2023-02-17T02:44:03;102484.94;;;17.10;69.73
53960;BME280;39866;48.638;-2.020;2023-02-17T02:46:29;102495.13;;;16.99;70.28
53960;BME280;39866;48.638;-2.020;2023-02-17T02:48:54;102492.44;;;16.99;70.28
53960;BME280;39866;48.638;-2.020;2023-02-17T02:59:12;102493.75;;;16.84;70.80
53960;BME280;39866;48.638;-2.020;2023-02-17T03:07:34;102494.28;;;16.97;70.13
53960;BME280;39866;48.638;-2.020;2023-02-17T03:10:02;102486.97;;;17.02;70.01
53960;BME280;39866;48.638;-2.020;2023-02-17T03:12:29;102493.94;;;17.09;69.71
53960;BME280;39866;48.638;-2.020;2023-02-17T03:15:04;102494.03;;;17.06;69.70
53960;BME280;39866;48.638;-2.020;2023-02-17T03:17:31;102493.34;;;16.98;69.88
53960;BME280;39866;48.638;-2.020;2023-02-17T03:19:59;102489.16;;;16.88;70.08
53960;BME280;39866;48.638;-2.020;2023-02-17T03:22:29;102493.69;;;16.86;70.56
53960;BME280;39866;48.638;-2.020;2023-02-17T03:24:55;102481.84;;;16.93;70.02
53960;BME280;39866;48.638;-2.020;2023-02-17T03:27:20;102490.44;;;16.74;70.98
53960;BME280;39866;48.638;-2.020;2023-02-17T03:29:46;102485.47;;;16.92;70.56
53960;BME280;39866;48.638;-2.020;2023-02-17T03:32:11;102483.59;;;16.94;70.18
53960;BME280;39866;48.638;-2.020;2023-02-17T03:34:36;102474.97;;;16.82;70.84
53960;BME280;39866;48.638;-2.020;2023-02-17T03:37:02;102485.19;;;17.01;70.08
53960;BME280;39866;48.638;-2.020;2023-02-17T03:39:27;102477.25;;;16.96;70.35
53960;BME280;39866;48.638;-2.020;2023-02-17T03:41:53;102485.94;;;17.06;70.23
53960;BME280;39866;48.638;-2.020;2023-02-17T03:44:18;102482.38;;;17.05;69.83
53960;BME280;39866;48.638;-2.020;2023-02-17T03:46:44;102490.78;;;16.95;69.97
53960;BME280;39866;48.638;-2.020;2023-02-17T03:49:10;102490.84;;;16.92;70.04
53960;BME280;39866;48.638;-2.020;2023-02-17T03:51:35;102499.53;;;17.01;69.96
53960;BME280;39866;48.638;-2.020;2023-02-17T03:54:01;102492.81;;;16.85;70.02
53960;BME280;39866;48.638;-2.020;2023-02-17T03:56:26;102500.59;;;16.96;70.11
53960;BME280;39866;48.638;-2.020;2023-02-17T03:58:52;102500.69;;;16.93;70.11
53960;BME280;39866;48.638;-2.020;2023-02-17T04:01:18;102489.09;;;16.91;70.11
53960;BME280;39866;48.638;-2.020;2023-02-17T04:03:43;102503.38;;;16.93;70.35
53960;BME280;39866;48.638;-2.020;2023-02-17T04:06:09;102503.63;;;16.83;70.79
53960;BME280;39866;48.638;-2.020;2023-02-17T04:08:35;102502.63;;;16.88;70.27
53960;BME280;39866;48.638;-2.020;2023-02-17T04:11:02;102507.75;;;16.97;70.19
53960;BME280;39866;48.638;-2.020;2023-02-17T04:13:27;102507.25;;;16.82;70.21
53960;BME280;39866;48.638;-2.020;2023-02-17T04:15:53;102502.75;;;16.83;70.17
53960;BME280;39866;48.638;-2.020;2023-02-17T04:18:20;102510.69;;;16.88;70.16
53960;BME280;39866;48.638;-2.020;2023-02-17T04:20:48;102500.28;;;16.72;70.29
53960;BME280;39866;48.638;-2.020;2023-02-17T04:23:14;102503.28;;;16.96;70.05
53960;BME280;39866;48.638;-2.020;2023-02-17T04:25:40;102508.00;;;16.88;70.08
53960;BME280;39866;48.638;-2.020;2023-02-17T04:28:05;102501.59;;;16.92;69.79
53960;BME280;39866;48.638;-2.020;2023-02-17T04:30:31;102501.66;;;16.90;70.06
53960;BME280;39866;48.638;-2.020;2023-02-17T04:32:57;102508.94;;;16.87;70.25
53960;BME280;39866;48.638;-2.020;2023-02-17T04:35:23;102510.56;;;16.92;70.39
53960;BME280;39866;48.638;-2.020;2023-02-17T04:37:48;102510.34;;;17.00;70.08
53960;BME280;39866;48.638;-2.020;2023-02-17T04:40:14;102505.13;;;16.94;70.00
53960;BME280;39866;48.638;-2.020;2023-02-17T04:42:39;102503.34;;;16.94;70.19
53960;BME280;39866;48.638;-2.020;2023-02-17T04:45:06;102504.75;;;17.07;70.17
53960;BME280;39866;48.638;-2.020;2023-02-17T04:47:31;102494.81;;;17.09;69.77
53960;BME280;39866;48.638;-2.020;2023-02-17T04:49:57;102503.03;;;17.05;70.08
53960;BME280;39866;48.638;-2.020;2023-02-17T04:52:22;102508.59;;;16.99;70.43
53960;BME280;39866;48.638;-2.020;2023-02-17T04:54:48;102513.72;;;17.08;70.09
53960;BME280;39866;48.638;-2.020;2023-02-17T04:57:13;102522.00;;;17.00;70.56
53960;BME280;39866;48.638;-2.020;2023-02-17T04:59:38;102502.00;;;17.09;70.06
53960;BME280;39866;48.638;-2.020;2023-02-17T05:02:04;102513.44;;;17.19;69.51
53960;BME280;39866;48.638;-2.020;2023-02-17T05:04:29;102518.75;;;17.20;69.72
53960;BME280;39866;48.638;-2.020;2023-02-17T05:06:54;102528.09;;;17.07;69.95
53960;BME280;39866;48.638;-2.020;2023-02-17T05:09:20;102527.16;;;17.08;69.85
53960;BME280;39866;48.638;-2.020;2023-02-17T05:11:45;102519.81;;;17.15;69.61
53960;BME280;39866;48.638;-2.020;2023-02-17T05:14:10;102518.88;;;17.16;69.58
53960;BME280;39866;48.638;-2.020;2023-02-17T05:16:36;102519.84;;;17.13;69.33
53960;BME280;39866;48.638;-2.020;2023-02-17T05:19:01;102530.13;;;16.99;69.70
53960;BME280;39866;48.638;-2.020;2023-02-17T05:21:27;102531.47;;;17.15;69.66
53960;BME280;39866;48.638;-2.020;2023-02-17T05:23:52;102534.09;;;17.17;69.44
53960;BME280;39866;48.638;-2.020;2023-02-17T05:26:18;102537.00;;;17.09;69.32
53960;BME280;39866;48.638;-2.020;2023-02-17T05:28:43;102540.69;;;17.05;69.27
53960;BME280;39866;48.638;-2.020;2023-02-17T05:31:08;102549.50;;;17.12;69.28
53960;BME280;39866;48.638;-2.020;2023-02-17T05:33:35;102549.28;;;17.19;69.13
53960;BME280;39866;48.638;-2.020;2023-02-17T05:36:08;102545.16;;;17.06;69.49
53960;BME280;39866;48.638;-2.020;2023-02-17T05:38:34;102550.44;;;17.11;69.45
53960;BME280;39866;48.638;-2.020;2023-02-17T05:40:59;102555.75;;;17.12;69.50
53960;BME280;39866;48.638;-2.020;2023-02-17T05:43:24;102553.06;;;17.12;69.01
53960;BME280;39866;48.638;-2.020;2023-02-17T05:45:50;102556.69;;;17.11;69.16
53960;BME280;39866;48.638;-2.020;2023-02-17T05:48:15;102554.09;;;17.08;69.03
53960;BME280;39866;48.638;-2.020;2023-02-17T05:50:41;102559.03;;;16.91;69.66
53960;BME280;39866;48.638;-2.020;2023-02-17T05:53:06;102557.94;;;16.98;69.71
53960;BME280;39866;48.638;-2.020;2023-02-17T05:55:32;102556.81;;;17.06;69.41
53960;BME280;39866;48.638;-2.020;2023-02-17T05:57:57;102557.72;;;17.07;69.49
53960;BME280;39866;48.638;-2.020;2023-02-17T06:00:23;102566.69;;;17.06;69.51
53960;BME280;39866;48.638;-2.020;2023-02-17T06:02:48;102567.66;;;17.03;69.33
53960;BME280;39866;48.638;-2.020;2023-02-17T06:05:14;102565.72;;;17.08;69.37
53960;BME280;39866;48.638;-2.020;2023-02-17T06:07:39;102561.97;;;17.14;69.05
53960;BME280;39866;48.638;-2.020;2023-02-17T06:10:05;102571.78;;;17.17;69.14
53960;BME280;39866;48.638;-2.020;2023-02-17T06:12:32;102573.75;;;17.10;69.13
53960;BME280;39866;48.638;-2.020;2023-02-17T06:14:57;102576.44;;;17.10;69.04
53960;BME280;39866;48.638;-2.020;2023-02-17T06:17:23;102578.94;;;17.18;68.97
53960;BME280;39866;48.638;-2.020;2023-02-17T06:19:48;102576.53;;;17.07;68.80
53960;BME280;39866;48.638;-2.020;2023-02-17T06:22:13;102579.25;;;17.07;68.95
53960;BME280;39866;48.638;-2.020;2023-02-17T06:24:39;102578.13;;;17.14;68.94
53960;BME280;39866;48.638;-2.020;2023-02-17T06:27:04;102566.41;;;17.17;68.69
53960;BME280;39866;48.638;-2.020;2023-02-17T06:29:29;102585.13;;;17.21;68.37
53960;BME280;39866;48.638;-2.020;2023-02-17T06:31:55;102588.81;;;17.17;68.64
53960;BME280;39866;48.638;-2.020;2023-02-17T06:34:20;102586.19;;;17.16;68.54
53960;BME280;39866;48.638;-2.020;2023-02-17T06:36:45;102588.81;;;17.17;68.47
53960;BME280;39866;48.638;-2.020;2023-02-17T06:39:11;102589.81;;;17.13;68.53
53960;BME280;39866;48.638;-2.020;2023-02-17T06:41:36;102576.28;;;17.16;68.39
53960;BME280;39866;48.638;-2.020;2023-02-17T06:44:02;102586.78;;;17.25;67.95
53960;BME280;39866;48.638;-2.020;2023-02-17T06:46:27;102581.94;;;17.07;68.49
53960;BME280;39866;48.638;-2.020;2023-02-17T06:48:52;102581.59;;;17.19;68.43
53960;BME280;39866;48.638;-2.020;2023-02-17T06:51:18;102589.00;;;17.11;68.63
53960;BME280;39866;48.638;-2.020;2023-02-17T06:53:43;102585.38;;;17.12;68.49
53960;BME280;39866;48.638;-2.020;2023-02-17T06:56:08;102600.50;;;17.16;68.61
53960;BME280;39866;48.638;-2.020;2023-02-17T06:58:36;102602.78;;;16.97;69.32
53960;BME280;39866;48.638;-2.020;2023-02-17T07:01:01;102608.84;;;17.07;69.20
53960;BME280;39866;48.638;-2.020;2023-02-17T07:03:27;102614.13;;;17.10;69.08
53960;BME280;39866;48.638;-2.020;2023-02-17T07:05:57;102623.28;;;17.03;68.87
53960;BME280;39866;48.638;-2.020;2023-02-17T07:08:23;102620.25;;;16.81;70.07
53960;BME280;39866;48.638;-2.020;2023-02-17T07:10:48;102630.75;;;16.14;72.05
53960;BME280;39866;48.638;-2.020;2023-02-17T07:13:14;102625.59;;;16.45;70.94
53960;BME280;39866;48.638;-2.020;2023-02-17T07:15:39;102629.72;;;16.20;71.12
53960;BME280;39866;48.638;-2.020;2023-02-17T07:18:04;102623.34;;;16.25;70.88
53960;BME280;39866;48.638;-2.020;2023-02-17T07:20:30;102633.66;;;16.44;70.52
53960;BME280;39866;48.638;-2.020;2023-02-17T07:22:56;102631.63;;;16.55;70.24
53960;BME280;39866;48.638;-2.020;2023-02-17T07:25:22;102630.47;;;16.26;70.95
53960;BME280;39866;48.638;-2.020;2023-02-17T07:27:47;102634.81;;;16.32;70.79
53960;BME280;39866;48.638;-2.020;2023-02-17T07:30:13;102639.53;;;16.22;71.08
53960;BME280;39866;48.638;-2.020;2023-02-17T07:32:38;102643.31;;;16.12;71.10
53960;BME280;39866;48.638;-2.020;2023-02-17T07:35:04;102645.28;;;16.04;71.58
53960;BME280;39866;48.638;-2.020;2023-02-17T07:37:29;102642.31;;;16.18;71.31
53960;BME280;39866;48.638;-2.020;2023-02-17T07:39:54;102651.72;;;16.39;70.38
53960;BME280;39866;48.638;-2.020;2023-02-17T07:42:21;102646.88;;;16.53;70.47
53960;BME280;39866;48.638;-2.020;2023-02-17T07:44:46;102650.63;;;16.47;70.46
53960;BME280;39866;48.638;-2.020;2023-02-17T07:47:12;102650.09;;;16.69;70.28
53960;BME280;39866;48.638;-2.020;2023-02-17T07:49:37;102660.53;;;16.84;69.78
53960;BME280;39866;48.638;-2.020;2023-02-17T07:52:03;102657.59;;;16.95;69.43
53960;BME280;39866;48.638;-2.020;2023-02-17T07:54:28;102677.25;;;16.97;69.38
53960;BME280;39866;48.638;-2.020;2023-02-17T07:56:53;102667.34;;;16.99;69.14
53960;BME280;39866;48.638;-2.020;2023-02-17T07:59:19;102674.16;;;16.76;69.22
53960;BME280;39866;48.638;-2.020;2023-02-17T08:01:44;102673.72;;;16.95;69.33
53960;BME280;39866;48.638;-2.020;2023-02-17T08:04:09;102673.81;;;16.92;69.19
53960;BME280;39866;48.638;-2.020;2023-02-17T08:06:36;102676.41;;;16.56;69.23
53960;BME280;39866;48.638;-2.020;2023-02-17T08:09:02;102675.59;;;16.52;69.40
53960;BME280;39866;48.638;-2.020;2023-02-17T08:11:45;102669.53;;;16.43;70.18
53960;BME280;39866;48.638;-2.020;2023-02-17T08:14:30;102659.06;;;16.69;69.24
53960;BME280;39866;48.638;-2.020;2023-02-17T08:16:57;102670.53;;;16.77;69.10
53960;BME280;39866;48.638;-2.020;2023-02-17T08:19:23;102675.69;;;16.49;69.73
53960;BME280;39866;48.638;-2.020;2023-02-17T08:21:50;102684.75;;;16.44;69.63
53960;BME280;39866;48.638;-2.020;2023-02-17T08:24:15;102680.09;;;16.10;70.54
53960;BME280;39866;48.638;-2.020;2023-02-17T08:26:41;102678.25;;;16.14;70.30
53960;BME280;39866;48.638;-2.020;2023-02-17T08:29:07;102675.41;;;16.21;70.17
53960;BME280;39866;48.638;-2.020;2023-02-17T08:31:34;102673.97;;;16.45;69.51
53960;BME280;39866;48.638;-2.020;2023-02-17T08:34:02;102677.72;;;16.37;69.35
53960;BME280;39866;48.638;-2.020;2023-02-17T08:36:29;102674.19;;;16.34;70.03
53960;BME280;39866;48.638;-2.020;2023-02-17T08:38:55;102678.16;;;16.18;69.61
53960;BME280;39866;48.638;-2.020;2023-02-17T08:41:22;102674.06;;;16.00;70.07
53960;BME280;39866;48.638;-2.020;2023-02-17T08:43:48;102678.34;;;16.09;70.08
53960;BME280;39866;48.638;-2.020;2023-02-17T08:46:14;102673.59;;;16.22;69.72
53960;BME280;39866;48.638;-2.020;2023-02-17T08:48:40;102676.13;;;16.28;69.76
53960;BME280;39866;48.638;-2.020;2023-02-17T08:51:06;102675.25;;;16.27;69.18
53960;BME280;39866;48.638;-2.020;2023-02-17T08:53:33;102668.63;;;16.44;69.35
53960;BME280;39866;48.638;-2.020;2023-02-17T08:55:58;102681.84;;;16.53;68.88
53960;BME280;39866;48.638;-2.020;2023-02-17T08:58:24;102687.44;;;16.44;68.97
53960;BME280;39866;48.638;-2.020;2023-02-17T09:00:49;102691.81;;;16.48;68.96
53960;BME280;39866;48.638;-2.020;2023-02-17T09:03:14;102698.44;;;16.72;68.47
53960;BME280;39866;48.638;-2.020;2023-02-17T09:05:40;102695.63;;;16.79;68.32
53960;BME280;39866;48.638;-2.020;2023-02-17T09:08:05;102695.63;;;16.79;67.88
53960;BME280;39866;48.638;-2.020;2023-02-17T09:10:31;102706.03;;;16.95;68.06
53960;BME280;39866;48.638;-2.020;2023-02-17T09:12:56;102694.03;;;17.08;67.57
53960;BME280;39866;48.638;-2.020;2023-02-17T09:15:22;102693.66;;;17.22;67.33
53960;BME280;39866;48.638;-2.020;2023-02-17T09:17:47;102695.22;;;17.30;66.99
53960;BME280;39866;48.638;-2.020;2023-02-17T09:20:13;102695.97;;;17.37;66.96
53960;BME280;39866;48.638;-2.020;2023-02-17T09:22:38;102708.63;;;17.33;66.96
53960;BME280;39866;48.638;-2.020;2023-02-17T09:25:04;102712.25;;;17.32;67.12
53960;BME280;39866;48.638;-2.020;2023-02-17T09:27:30;102713.94;;;17.37;67.13
53960;BME280;39866;48.638;-2.020;2023-02-17T09:29:55;102718.13;;;17.48;66.75
53960;BME280;39866;48.638;-2.020;2023-02-17T09:32:21;102717.50;;;17.37;66.91
53960;BME280;39866;48.638;-2.020;2023-02-17T09:34:46;102712.25;;;17.32;66.77
53960;BME280;39866;48.638;-2.020;2023-02-17T09:37:17;102712.75;;;17.47;66.78
53960;BME280;39866;48.638;-2.020;2023-02-17T09:39:44;102709.84;;;17.56;66.75
53960;BME280;39866;48.638;-2.020;2023-02-17T09:42:21;102700.91;;;17.54;66.72
53960;BME280;39866;48.638;-2.020;2023-02-17T09:44:55;102719.84;;;17.51;66.34
53960;BME280;39866;48.638;-2.020;2023-02-17T09:47:27;102717.06;;;17.54;66.36
53960;BME280;39866;48.638;-2.020;2023-02-17T09:50:00;102725.81;;;17.62;66.18
53960;BME280;39866;48.638;-2.020;2023-02-17T09:58:08;102733.84;;;17.65;66.06
53960;BME280;39866;48.638;-2.020;2023-02-17T10:00:46;102737.53;;;17.61;65.85
53960;BME280;39866;48.638;-2.020;2023-02-17T10:03:21;102756.06;;;17.39;66.32
53960;BME280;39866;48.638;-2.020;2023-02-17T10:05:53;102744.88;;;16.81;68.02
53960;BME280;39866;48.638;-2.020;2023-02-17T10:08:26;102759.44;;;17.10;67.38
53960;BME280;39866;48.638;-2.020;2023-02-17T10:13:28;102756.34;;;16.90;67.59
53960;BME280;39866;48.638;-2.020;2023-02-17T10:15:58;102757.59;;;16.75;68.04
53960;BME280;39866;48.638;-2.020;2023-02-17T10:18:36;102764.03;;;16.66;68.73
53960;BME280;39866;48.638;-2.020;2023-02-17T10:21:06;102768.88;;;16.49;69.34
53960;BME280;39866;48.638;-2.020;2023-02-17T10:23:36;102772.28;;;16.58;69.01
53960;BME280;39866;48.638;-2.020;2023-02-17T10:26:11;102777.75;;;16.54;68.98
53960;BME280;39866;48.638;-2.020;2023-02-17T10:32:17;102779.97;;;16.33;69.03
53960;BME280;39866;48.638;-2.020;2023-02-17T10:36:59;102777.13;;;15.95;69.60
53960;BME280;39866;48.638;-2.020;2023-02-17T10:41:56;102787.78;;;16.01;69.00
53960;BME280;39866;48.638;-2.020;2023-02-17T10:44:23;102790.94;;;16.23;68.62
53960;BME280;39866;48.638;-2.020;2023-02-17T10:46:51;102797.50;;;16.06;69.07
53960;BME280;39866;48.638;-2.020;2023-02-17T10:49:38;102796.06;;;15.89;69.50
53960;BME280;39866;48.638;-2.020;2023-02-17T10:52:13;102802.19;;;15.95;69.07
53960;BME280;39866;48.638;-2.020;2023-02-17T10:54:51;102800.47;;;15.93;69.48
53960;BME280;39866;48.638;-2.020;2023-02-17T10:57:19;102804.00;;;15.96;69.11
53960;BME280;39866;48.638;-2.020;2023-02-17T10:59:47;102810.91;;;15.57;70.45
53960;BME280;39866;48.638;-2.020;2023-02-17T11:02:20;102819.88;;;15.54;70.98
53960;BME280;39866;48.638;-2.020;2023-02-17T11:04:51;102817.19;;;15.56;70.23
53960;BME280;39866;48.638;-2.020;2023-02-17T11:07:30;102818.06;;;16.09;69.07
53960;BME280;39866;48.638;-2.020;2023-02-17T11:09:59;102812.56;;;15.66;70.22
53960;BME280;39866;48.638;-2.020;2023-02-17T11:12:31;102822.69;;;15.48;69.98
53960;BME280;39866;48.638;-2.020;2023-02-17T11:14:57;102822.66;;;15.50;70.74
53960;BME280;39866;48.638;-2.020;2023-02-17T11:17:29;102820.81;;;15.53;70.70
53960;BME280;39866;48.638;-2.020;2023-02-17T11:19:56;102820.56;;;15.11;72.07
53960;BME280;39866;48.638;-2.020;2023-02-17T11:25:03;102827.22;;;15.45;71.02
53960;BME280;39866;48.638;-2.020;2023-02-17T11:27:28;102834.50;;;15.36;71.35
53960;BME280;39866;48.638;-2.020;2023-02-17T11:30:05;102823.72;;;15.40;71.52
53960;BME280;39866;48.638;-2.020;2023-02-17T11:32:31;102833.13;;;15.68;71.23
53960;BME280;39866;48.638;-2.020;2023-02-17T11:34:58;102833.63;;;15.36;70.89
53960;BME280;39866;48.638;-2.020;2023-02-17T11:37:24;102829.34;;;15.21;71.29
53960;BME280;39866;48.638;-2.020;2023-02-17T11:39:53;102835.53;;;15.26;71.57
53960;BME280;39866;48.638;-2.020;2023-02-17T11:44:48;102824.16;;;15.69;70.44
53960;BME280;39866;48.638;-2.020;2023-02-17T11:47:32;102819.38;;;15.29;71.74
53960;BME280;39866;48.638;-2.020;2023-02-17T11:53:01;102811.53;;;15.17;72.42
53960;BME280;39866;48.638;-2.020;2023-02-17T11:55:48;102811.44;;;15.22;72.50
53960;BME280;39866;48.638;-2.020;2023-02-17T11:58:25;102813.53;;;15.03;73.01
53960;BME280;39866;48.638;-2.020;2023-02-17T12:03:42;102802.69;;;15.09;72.74
53960;BME280;39866;48.638;-2.020;2023-02-17T12:09:32;102796.97;;;15.33;71.78
53960;BME280;39866;48.638;-2.020;2023-02-17T12:25:56;102786.38;;;15.80;69.17
53960;BME280;39866;48.638;-2.020;2023-02-17T12:29:08;102787.19;;;15.83;68.82
53960;BME280;39866;48.638;-2.020;2023-02-17T12:31:55;102790.56;;;15.96;67.95
53960;BME280;39866;48.638;-2.020;2023-02-17T12:34:43;102783.03;;;15.63;68.51
53960;BME280;39866;48.638;-2.020;2023-02-17T12:37:17;102776.09;;;16.02;68.19
53960;BME280;39866;48.638;-2.020;2023-02-17T12:39:56;102769.56;;;16.15;67.11
53960;BME280;39866;48.638;-2.020;2023-02-17T12:42:34;102761.25;;;15.82;67.41
53960;BME280;39866;48.638;-2.020;2023-02-17T12:45:06;102766.94;;;16.12;67.46
53960;BME280;39866;48.638;-2.020;2023-02-17T12:50:05;102761.38;;;15.76;68.40
53960;BME280;39866;48.638;-2.020;2023-02-17T12:52:41;102771.63;;;15.50;69.19
53960;BME280;39866;48.638;-2.020;2023-02-17T12:55:13;102765.44;;;15.46;69.15
53960;BME280;39866;48.638;-2.020;2023-02-17T12:57:48;102757.78;;;15.23;69.75
53960;BME280;39866;48.638;-2.020;2023-02-17T13:00:34;102764.59;;;15.43;69.34
53960;BME280;39866;48.638;-2.020;2023-02-17T13:03:03;102758.00;;;15.64;68.37
53960;BME280;39866;48.638;-2.020;2023-02-17T13:05:35;102757.34;;;15.99;67.11
53960;BME280;39866;48.638;-2.020;2023-02-17T13:08:22;102746.13;;;15.77;67.74
53960;BME280;39866;48.638;-2.020;2023-02-17T13:11:09;102747.75;;;15.85;67.52
53960;BME280;39866;48.638;-2.020;2023-02-17T13:13:35;102746.66;;;15.96;67.46
53960;BME280;39866;48.638;-2.020;2023-02-17T13:16:19;102747.06;;;15.74;68.19
53960;BME280;39866;48.638;-2.020;2023-02-17T13:18:46;102744.66;;;15.57;68.59
53960;BME280;39866;48.638;-2.020;2023-02-17T13:24:02;102736.31;;;15.23;69.87
53960;BME280;39866;48.638;-2.020;2023-02-17T13:26:33;102744.00;;;14.88;70.54
53960;BME280;39866;48.638;-2.020;2023-02-17T13:31:59;102739.28;;;15.05;70.78
53960;BME280;39866;48.638;-2.020;2023-02-17T13:36:53;102728.00;;;15.37;69.38
53960;BME280;39866;48.638;-2.020;2023-02-17T13:41:51;102727.09;;;15.40;69.52
53960;BME280;39866;48.638;-2.020;2023-02-17T13:46:49;102734.72;;;15.63;68.80
53960;BME280;39866;48.638;-2.020;2023-02-17T13:49:21;102743.50;;;15.74;67.70
53960;BME280;39866;48.638;-2.020;2023-02-17T13:51:47;102740.91;;;15.69;68.47
53960;BME280;39866;48.638;-2.020;2023-02-17T13:54:14;102735.72;;;15.57;68.31
53960;BME280;39866;48.638;-2.020;2023-02-17T13:56:51;102745.78;;;15.43;68.82
53960;BME280;39866;48.638;-2.020;2023-02-17T13:59:23;102746.69;;;15.45;68.78
53960;BME280;39866;48.638;-2.020;2023-02-17T14:01:49;102739.38;;;15.53;68.90
53960;BME280;39866;48.638;-2.020;2023-02-17T14:04:22;102743.47;;;15.75;68.36
53960;BME280;39866;48.638;-2.020;2023-02-17T14:06:48;102743.53;;;15.71;68.44
53960;BME280;39866;48.638;-2.020;2023-02-17T14:11:49;102724.22;;;15.49;69.29
53960;BME280;39866;48.638;-2.020;2023-02-17T14:14:15;102720.84;;;15.39;68.92
53960;BME280;39866;48.638;-2.020;2023-02-17T14:16:42;102729.13;;;15.24;70.33
53960;BME280;39866;48.638;-2.020;2023-02-17T14:19:17;102730.25;;;15.10;70.30
53960;BME280;39866;48.638;-2.020;2023-02-17T14:21:55;102734.44;;;15.28;69.76